Terminal Aerodrome Forecast
Issued by NWS Charleston, SC

Home | Current Version | Previous Version | Text Only | Print | Product List | Glossary On
Versions: 1 2 3 4 5 6 7 8 9 10 11 12 13
000
FTUS42 KCHS 252328
TAFCHS
TAF
KCHS 252328Z 2600/2624 14006KT P6SM FEW050
     FM261100 14005KT P6SM SCT050 BKN200
     FM261700 16010KT P6SM SCT040=

USA.gov is the U.S. government's official web portal to all federal, state and local government web resources and services.